Time;durP1;ratioP1;P1;durP2;ratioP2;P2;SDS_P1;SDS_P2;PMS_P1;PMS_P2;Temp;Humidity;BMP_temperature;BMP_pressure;BME280_temperature;BME280_humidity;BME280_pressure;Samples;Min_cycle;Max_cycle;Signal;HPM_P1;HPM_P2
2023/04/19 00:00:33;;;;;;;10.75;5.43;;;8.20;99.90;;;;;;5105508;27;20482;-79
2023/04/19 00:02:59;;;;;;;9.80;4.95;;;8.10;99.90;;;;;;5073911;27;20069;-79
2023/04/19 00:05:25;;;;;;;10.77;5.38;;;8.10;99.90;;;;;;5124418;27;20553;-79
2023/04/19 00:07:51;;;;;;;7.88;5.07;;;8.10;99.90;;;;;;5124848;27;20126;-80
2023/04/19 00:10:16;;;;;;;10.15;5.32;;;8.10;99.90;;;;;;5107078;27;20445;-79
2023/04/19 00:12:42;;;;;;;12.40;5.13;;;8.10;99.90;;;;;;5105407;27;20051;-79
2023/04/19 00:15:08;;;;;;;8.05;5.45;;;8.00;99.90;;;;;;5106904;28;20043;-79
2023/04/19 00:17:34;;;;;;;8.52;5.45;;;8.00;99.90;;;;;;5105686;27;20047;-79
2023/04/19 00:20:02;;;;;;;6.15;4.68;;;8.00;99.90;;;;;;5106612;28;20166;-79
2023/04/19 00:22:28;;;;;;;6.20;4.65;;;8.00;99.90;;;;;;5105466;28;20051;-79
2023/04/19 00:24:54;;;;;;;9.90;5.28;;;8.00;99.90;;;;;;5072447;28;20083;-79
2023/04/19 00:27:20;;;;;;;8.32;4.97;;;8.00;99.90;;;;;;5088910;28;20039;-78
2023/04/19 00:29:45;;;;;;;8.80;5.03;;;8.00;99.90;;;;;;5105549;28;20043;-78
2023/04/19 00:32:11;;;;;;;13.88;5.90;;;8.00;99.90;;;;;;5106743;28;20107;-79
2023/04/19 00:34:37;;;;;;;10.00;5.63;;;8.00;99.90;;;;;;5105620;28;20648;-79
2023/04/19 00:37:05;;;;;;;9.20;5.97;;;8.00;99.90;;;;;;5124961;28;20070;-78
2023/04/19 00:39:31;;;;;;;7.63;5.75;;;8.00;99.90;;;;;;5105471;28;20051;-78
2023/04/19 00:41:57;;;;;;;9.98;5.55;;;8.00;99.90;;;;;;5072098;28;20051;-79
2023/04/19 00:44:23;;;;;;;7.07;5.25;;;7.90;99.90;;;;;;5124763;28;20047;-78
2023/04/19 00:46:49;;;;;;;8.48;5.80;;;7.90;99.90;;;;;;5105477;28;20039;-78
2023/04/19 00:49:17;;;;;;;15.02;5.80;;;8.60;99.90;;;;;;5106551;28;20134;-78
2023/04/19 00:51:43;;;;;;;8.52;5.60;;;8.70;99.90;;;;;;5123571;28;20051;-79
2023/04/19 00:54:09;;;;;;;9.77;6.25;;;7.90;99.90;;;;;;5089475;28;20040;-79
2023/04/19 00:56:35;;;;;;;10.15;5.32;;;7.80;99.90;;;;;;5092144;27;20046;-79
2023/04/19 00:59:01;;;;;;;8.95;6.07;;;7.80;99.90;;;;;;5110121;27;20143;-79
2023/04/19 01:01:27;;;;;;;9.85;6.38;;;7.80;99.90;;;;;;5109621;27;20047;-79
2023/04/19 01:03:53;;;;;;;9.60;6.22;;;7.70;99.90;;;;;;5109566;27;20047;-79
2023/04/19 01:06:19;;;;;;;10.18;6.05;;;7.70;99.90;;;;;;5110331;27;20484;-78
2023/04/19 01:08:45;;;;;;;13.05;6.72;;;7.70;99.90;;;;;;5109142;27;20427;-79
2023/04/19 01:11:11;;;;;;;12.73;6.00;;;8.20;99.90;;;;;;5129104;27;20390;-79
2023/04/19 01:13:37;;;;;;;12.15;6.63;;;7.60;99.90;;;;;;5108905;27;20047;-79
2023/04/19 01:16:02;;;;;;;13.13;6.57;;;7.60;99.90;;;;;;5109960;27;20050;-78
2023/04/19 01:18:32;;;;;;;10.50;6.85;;;7.60;99.90;;;;;;5109845;27;20435;-78
2023/04/19 01:20:58;;;;;;;10.38;6.38;;;7.60;99.90;;;;;;5109333;27;20079;-78
2023/04/19 01:23:24;;;;;;;14.15;6.55;;;7.50;99.90;;;;;;5092668;27;20039;-79
2023/04/19 01:25:50;;;;;;;12.43;7.00;;;6.40;99.90;;;;;;5126886;27;20134;-78
2023/04/19 01:28:16;;;;;;;11.77;7.20;;;8.40;99.90;;;;;;5109978;27;20130;-78
2023/04/19 01:30:42;;;;;;;13.70;6.72;;;7.70;99.90;;;;;;5127061;27;20052;-78
2023/04/19 01:33:08;;;;;;;12.82;7.30;;;8.00;99.90;;;;;;5109035;27;20050;-78
2023/04/19 01:35:33;;;;;;;10.30;6.82;;;7.40;99.90;;;;;;5127284;27;20047;-78
2023/04/19 01:37:59;;;;;;;11.05;6.63;;;7.40;99.90;;;;;;5108957;27;20043;-78
2023/04/19 01:40:25;;;;;;;11.95;7.35;;;7.30;99.90;;;;;;5127482;27;20062;-78
2023/04/19 01:42:52;;;;;;;18.52;7.60;;;7.30;99.90;;;;;;5108717;27;20364;-78
2023/04/19 01:45:18;;;;;;;11.75;7.32;;;8.10;99.90;;;;;;5128236;27;20394;-78
2023/04/19 01:47:43;;;;;;;10.55;7.22;;;7.20;99.90;;;;;;5127187;27;20031;-78
2023/04/19 01:50:09;;;;;;;13.77;7.85;;;8.80;99.90;;;;;;5108934;27;20405;-78
2023/04/19 01:52:35;;;;;;;11.10;8.10;;;7.20;99.90;;;;;;5108749;27;20290;-78
2023/04/19 01:55:01;;;;;;;12.18;7.40;;;7.30;99.90;;;;;;5127041;27;20092;-78
2023/04/19 01:57:27;;;;;;;10.20;7.20;;;7.10;99.90;;;;;;5108476;27;20163;-78
2023/04/19 01:59:53;;;;;;;10.77;7.28;;;7.00;99.90;;;;;;5107626;27;20092;-78
2023/04/19 02:02:19;;;;;;;10.73;6.55;;;8.00;99.90;;;;;;5092140;27;20035;-78
2023/04/19 02:04:44;;;;;;;12.48;7.30;;;7.00;99.90;;;;;;5090601;27;20045;-78
2023/04/19 02:07:10;;;;;;;14.88;8.20;;;6.90;99.90;;;;;;5127574;27;20165;-78
2023/04/19 02:09:37;;;;;;;8.88;6.88;;;7.10;99.90;;;;;;5107799;27;20035;-77
2023/04/19 02:12:04;;;;;;;10.38;7.05;;;6.90;99.90;;;;;;5108617;27;20077;-78
2023/04/19 02:14:29;;;;;;;18.75;6.85;;;6.80;99.90;;;;;;5108357;27;20054;-78
2023/04/19 02:16:55;;;;;;;13.88;6.97;;;6.80;99.90;;;;;;5107859;27;20043;-79
2023/04/19 02:19:21;;;;;;;9.18;6.40;;;6.80;99.90;;;;;;5108245;27;20517;-78
2023/04/19 02:21:47;;;;;;;9.65;6.30;;;6.90;99.90;;;;;;5107208;27;20200;-79
2023/04/19 02:24:12;;;;;;;12.98;6.90;;;7.00;99.90;;;;;;5108327;27;20039;-78
2023/04/19 02:26:39;;;;;;;7.20;4.80;;;6.90;99.90;;;;;;5126452;27;20047;-79
2023/04/19 02:29:05;;;;;;;12.32;4.68;;;7.50;99.90;;;;;;5127139;27;20379;-78
2023/04/19 02:31:31;;;;;;;12.93;5.38;;;7.70;99.90;;;;;;5107942;27;20493;-78
2023/04/19 02:33:57;;;;;;;8.70;4.07;;;6.80;99.90;;;;;;5090291;27;20045;-78
2023/04/19 02:36:23;;;;;;;9.52;4.30;;;6.80;99.90;;;;;;5108829;27;20484;-78
2023/04/19 02:38:48;;;;;;;6.47;4.43;;;6.80;99.90;;;;;;5106983;27;20386;-78
2023/04/19 02:41:14;;;;;;;8.88;4.40;;;7.30;99.90;;;;;;5108296;27;20391;-78
2023/04/19 02:43:40;;;;;;;11.93;4.13;;;7.20;99.90;;;;;;5107901;27;20051;-78
2023/04/19 02:46:06;;;;;;;7.63;4.47;;;6.90;99.90;;;;;;5107798;27;20108;-78
2023/04/19 02:48:31;;;;;;;8.68;4.45;;;6.70;99.90;;;;;;5125961;27;20051;-78
2023/04/19 02:50:57;;;;;;;7.95;3.92;;;6.70;99.90;;;;;;5125782;27;21031;-78
2023/04/19 02:53:23;;;;;;;8.38;4.43;;;6.70;99.90;;;;;;5108193;27;20106;-78
2023/04/19 02:55:49;;;;;;;7.15;4.63;;;6.60;99.90;;;;;;5106699;27;20082;-78
2023/04/19 02:58:15;;;;;;;7.55;4.13;;;6.60;99.90;;;;;;5107953;27;20047;-78
2023/04/19 03:00:41;;;;;;;7.82;4.70;;;6.50;99.90;;;;;;5107265;27;20047;-78
2023/04/19 03:03:08;;;;;;;7.63;4.38;;;8.00;99.90;;;;;;5126307;27;20075;-78
2023/04/19 03:05:34;;;;;;;6.97;4.72;;;7.30;99.90;;;;;;5125713;27;20070;-78
2023/04/19 03:07:59;;;;;;;5.68;4.32;;;6.90;99.90;;;;;;5090026;27;20481;-78
2023/04/19 03:10:25;;;;;;;7.45;4.18;;;6.40;99.90;;;;;;5107063;27;20124;-78
2023/04/19 03:12:51;;;;;;;7.55;4.53;;;6.40;99.90;;;;;;5090247;27;20054;-78
2023/04/19 03:15:18;;;;;;;8.85;4.80;;;6.30;99.90;;;;;;5090988;27;20494;-78
2023/04/19 03:17:44;;;;;;;8.90;4.45;;;6.30;99.90;;;;;;5106337;27;20065;-78
2023/04/19 03:20:10;;;;;;;8.10;4.57;;;6.30;99.90;;;;;;5107176;27;20482;-78
2023/04/19 03:22:37;;;;;;;7.50;4.47;;;6.20;99.90;;;;;;5106649;27;20050;-78
2023/04/19 03:25:03;;;;;;;7.00;4.50;;;6.60;99.90;;;;;;5125440;27;20075;-78
2023/04/19 03:27:29;;;;;;;12.85;5.05;;;6.10;99.90;;;;;;5107516;27;20047;-78
2023/04/19 03:29:55;;;;;;;7.60;4.28;;;6.20;99.90;;;;;;5106136;27;20050;-78
2023/04/19 03:32:24;;;;;;;7.40;4.53;;;6.10;99.90;;;;;;5090383;27;20496;-78
2023/04/19 03:34:49;;;;;;;12.05;4.90;;;6.00;99.90;;;;;;5090048;27;20142;-78
2023/04/19 03:37:15;;;;;;;7.22;4.75;;;6.00;99.90;;;;;;5107003;27;20074;-78
2023/04/19 03:39:41;;;;;;;7.10;4.28;;;6.60;99.90;;;;;;5105975;27;20047;-79
2023/04/19 03:42:06;;;;;;;6.75;5.00;;;5.90;99.90;;;;;;5106504;27;20054;-78
2023/04/19 03:44:33;;;;;;;19.00;5.30;;;7.40;99.90;;;;;;5106581;27;20118;-78
2023/04/19 03:46:58;;;;;;;6.72;4.00;;;5.80;99.90;;;;;;5106006;27;20046;-78
2023/04/19 03:49:24;;;;;;;6.65;4.55;;;5.80;99.90;;;;;;5107001;27;20051;-78
2023/04/19 03:51:50;;;;;;;8.73;5.05;;;5.80;99.90;;;;;;5106537;27;20066;-78
2023/04/19 03:54:16;;;;;;;9.88;4.63;;;5.70;99.90;;;;;;5125059;27;20490;-78
2023/04/19 03:56:42;;;;;;;6.82;4.18;;;5.70;99.90;;;;;;5089768;27;20047;-78
2023/04/19 03:59:11;;;;;;;7.25;4.90;;;5.60;99.90;;;;;;5089559;27;20125;-78
2023/04/19 04:01:40;;;;;;;9.73;6.35;;;5.50;99.90;;;;;;5106194;27;20047;-78
2023/04/19 04:04:10;;;;;;;13.10;5.28;;;5.50;99.90;;;;;;5124238;27;20046;-78
2023/04/19 04:06:36;;;;;;;9.05;5.32;;;5.50;99.90;;;;;;5106664;27;20043;-78
2023/04/19 04:09:02;;;;;;;11.02;5.40;;;5.40;99.90;;;;;;5105568;28;20066;-78
2023/04/19 04:11:28;;;;;;;6.47;4.97;;;5.30;99.90;;;;;;5106924;27;20051;-78
2023/04/19 04:13:55;;;;;;;11.75;5.90;;;5.30;99.90;;;;;;5105962;27;20039;-79
2023/04/19 04:16:21;;;;;;;8.05;5.47;;;5.20;99.90;;;;;;5105859;28;20043;-79
2023/04/19 04:18:50;;;;;;;12.40;5.82;;;5.20;99.90;;;;;;5089712;27;20066;-79
2023/04/19 04:21:15;;;;;;;11.05;5.57;;;6.30;99.90;;;;;;5105694;28;20043;-79
2023/04/19 04:23:41;;;;;;;9.68;5.70;;;5.10;99.90;;;;;;5124831;28;20065;-78
2023/04/19 04:26:08;;;;;;;10.90;5.50;;;5.00;99.90;;;;;;5105258;28;20098;-79
2023/04/19 04:28:35;;;;;;;12.13;5.55;;;5.10;99.90;;;;;;5106506;27;20058;-79
2023/04/19 04:31:01;;;;;;;8.43;5.78;;;5.60;99.90;;;;;;5092243;27;20038;-79
2023/04/19 04:33:27;;;;;;;7.93;5.20;;;4.90;99.90;;;;;;5110122;27;20054;-79
2023/04/19 04:35:55;;;;;;;7.82;5.07;;;4.80;99.90;;;;;;5110423;27;20432;-79
2023/04/19 04:38:21;;;;;;;8.30;5.65;;;4.90;99.90;;;;;;5109430;27;20050;-80
2023/04/19 04:40:53;;;;;;;8.93;5.13;;;4.80;99.90;;;;;;5110376;27;20068;-79
2023/04/19 04:43:20;;;;;;;9.77;5.13;;;4.80;99.90;;;;;;5109273;27;20058;-78
2023/04/19 04:45:46;;;;;;;8.20;4.93;;;4.90;99.90;;;;;;5110264;27;20498;-81
2023/04/19 04:48:12;;;;;;;8.82;5.43;;;4.80;99.90;;;;;;5128144;27;20100;-80
2023/04/19 04:50:38;;;;;;;9.50;5.28;;;5.00;99.90;;;;;;5109963;27;20043;-80
2023/04/19 04:53:04;;;;;;;10.32;5.05;;;4.70;99.90;;;;;;5109944;27;20039;-79
2023/04/19 04:55:29;;;;;;;7.43;5.05;;;4.70;99.90;;;;;;5092130;27;20488;-80
2023/04/19 04:57:55;;;;;;;9.05;4.75;;;4.70;99.90;;;;;;5128800;27;20043;-79
2023/04/19 05:00:25;;;;;;;6.38;4.30;;;5.90;99.90;;;;;;5127784;27;20488;-79
2023/04/19 05:02:50;;;;;;;10.40;4.78;;;4.80;99.90;;;;;;5110132;27;20050;-78
2023/04/19 05:05:16;;;;;;;8.95;4.80;;;4.80;99.90;;;;;;5127633;27;20044;-80
2023/04/19 05:07:42;;;;;;;8.32;4.63;;;4.80;99.90;;;;;;5092250;27;20042;-79
2023/04/19 05:10:08;;;;;;;6.28;4.03;;;4.90;99.90;;;;;;5109194;27;20100;-80
2023/04/19 05:12:35;;;;;;;9.90;4.55;;;4.90;99.90;;;;;;5108874;27;20045;-80
2023/04/19 05:15:00;;;;;;;6.32;4.00;;;6.30;99.90;;;;;;5110495;27;20389;-82
2023/04/19 05:17:26;;;;;;;6.80;3.85;;;5.10;99.90;;;;;;5126924;27;20035;-80
2023/04/19 05:19:52;;;;;;;9.35;4.63;;;5.20;99.90;;;;;;5127974;27;20047;-79
2023/04/19 05:22:17;;;;;;;7.47;4.35;;;5.40;99.90;;;;;;5109232;27;20603;-79
2023/04/19 05:24:43;;;;;;;5.20;3.72;;;5.30;99.90;;;;;;5127833;27;20039;-81
2023/04/19 05:27:10;;;;;;;8.95;3.60;;;5.70;99.90;;;;;;5109110;27;20447;-81
2023/04/19 05:29:35;;;;;;;9.13;3.55;;;6.00;99.90;;;;;;5127329;27;20051;-78
2023/04/19 05:32:01;;;;;;;6.97;3.22;;;5.50;99.90;;;;;;5092484;27;20091;-81
2023/04/19 05:34:27;;;;;;;6.05;3.10;;;5.70;99.90;;;;;;5108946;27;20118;-81
2023/04/19 05:36:53;;;;;;;8.73;3.30;;;5.90;99.90;;;;;;5109957;27;20039;-79
2023/04/19 05:39:19;;;;;;;7.55;3.20;;;7.20;99.90;;;;;;5126808;27;20487;-80
2023/04/19 05:41:45;;;;;;;5.78;3.83;;;5.90;99.90;;;;;;5108588;27;20112;-78
2023/04/19 05:44:10;;;;;;;4.28;2.92;;;6.00;99.90;;;;;;5127563;27;20039;-79
2023/04/19 05:46:36;;;;;;;8.10;3.65;;;6.10;99.90;;;;;;5127301;27;20054;-79
2023/04/19 05:49:02;;;;;;;5.80;3.20;;;6.20;99.90;;;;;;5127651;27;20115;-79
2023/04/19 05:51:27;;;;;;;5.55;3.28;;;6.70;99.90;;;;;;5126407;27;20039;-80
2023/04/19 05:53:53;;;;;;;7.70;3.55;;;6.30;99.90;;;;;;5109374;27;20039;-80
2023/04/19 05:56:19;;;;;;;4.38;2.85;;;7.80;99.90;;;;;;5074721;27;20043;-79
2023/04/19 05:58:45;;;;;;;8.32;3.42;;;7.40;99.90;;;;;;5108877;27;20108;-78
2023/04/19 06:01:11;;;;;;;5.95;3.13;;;6.50;99.90;;;;;;5127905;27;20039;-78
2023/04/19 06:03:36;;;;;;;5.20;2.85;;;7.00;99.90;;;;;;5127398;27;20043;-78
2023/04/19 06:06:02;;;;;;;6.18;2.58;;;6.70;99.90;;;;;;5108786;27;20082;-78
2023/04/19 06:08:28;;;;;;;7.07;3.53;;;6.80;99.90;;;;;;5107394;27;20096;-78
2023/04/19 06:10:55;;;;;;;6.38;3.13;;;7.40;99.90;;;;;;5109930;27;20040;-78
2023/04/19 06:13:21;;;;;;;8.82;2.85;;;7.00;99.90;;;;;;5108710;27;20047;-78
2023/04/19 06:15:48;;;;;;;4.97;2.88;;;7.00;99.90;;;;;;5109554;27;20070;-78
2023/04/19 06:18:13;;;;;;;8.82;3.05;;;7.10;99.90;;;;;;5107840;27;20039;-78
2023/04/19 06:20:39;;;;;;;6.80;3.08;;;7.50;99.90;;;;;;5074521;27;20304;-78
2023/04/19 06:23:05;;;;;;;5.30;2.72;;;7.20;99.90;;;;;;5108532;27;20099;-78
2023/04/19 06:25:31;;;;;;;4.90;3.33;;;7.40;99.90;;;;;;5108107;27;20062;-78
2023/04/19 06:27:57;;;;;;;8.00;3.25;;;7.60;99.90;;;;;;5092584;27;20074;-78
2023/04/19 06:30:23;;;;;;;5.80;2.47;;;7.50;99.90;;;;;;5126227;27;20481;-78
2023/04/19 06:32:49;;;;;;;4.60;2.80;;;7.70;99.90;;;;;;5127696;27;20039;-77
2023/04/19 06:35:15;;;;;;;5.07;2.80;;;7.80;99.90;;;;;;5126527;27;20027;-78
2023/04/19 06:37:40;;;;;;;5.65;2.47;;;7.80;99.90;;;;;;5090952;27;20035;-79
2023/04/19 06:40:07;;;;;;;5.57;2.80;;;7.90;99.90;;;;;;5107768;27;20058;-78
2023/04/19 06:42:34;;;;;;;5.05;2.35;;;8.00;99.90;;;;;;5107392;27;20042;-79
2023/04/19 06:44:59;;;;;;;5.45;2.25;;;8.20;99.90;;;;;;5126924;27;20061;-78
2023/04/19 06:47:25;;;;;;;4.20;2.25;;;8.30;99.90;;;;;;5090292;27;20051;-79
2023/04/19 06:49:51;;;;;;;4.18;2.10;;;8.80;99.90;;;;;;5108262;27;20067;-78
2023/04/19 06:52:20;;;;;;;5.93;2.45;;;8.50;99.90;;;;;;5074115;27;20062;-79
2023/04/19 06:54:50;;;;;;;3.08;1.60;;;8.70;99.90;;;;;;5107480;27;20047;-79
2023/04/19 06:57:17;;;;;;;4.18;1.67;;;8.80;99.90;;;;;;5090328;27;20541;-79
2023/04/19 06:59:43;;;;;;;4.03;2.00;;;8.90;99.90;;;;;;5106517;27;20058;-79
2023/04/19 07:02:09;;;;;;;4.07;1.80;;;9.00;99.90;;;;;;5107409;27;20162;-79
2023/04/19 07:04:35;;;;;;;3.47;1.25;;;9.10;99.90;;;;;;5106225;27;20059;-78
2023/04/19 07:07:02;;;;;;;4.43;2.17;;;9.10;99.90;;;;;;5091342;27;20035;-79
2023/04/19 07:09:28;;;;;;;3.33;1.55;;;9.30;99.90;;;;;;5106935;27;20047;-79
2023/04/19 07:11:54;;;;;;;2.90;1.88;;;9.30;99.90;;;;;;5106978;27;20092;-79
2023/04/19 07:14:20;;;;;;;6.05;1.75;;;9.50;99.90;;;;;;5106866;27;20047;-79
2023/04/19 07:16:46;;;;;;;6.20;1.88;;;9.50;99.90;;;;;;5106622;27;20043;-79
2023/04/19 07:19:12;;;;;;;4.00;1.40;;;9.60;99.90;;;;;;5107382;27;20046;-80
2023/04/19 07:21:38;;;;;;;3.90;1.80;;;9.60;99.90;;;;;;5106106;27;20053;-77
2023/04/19 07:24:05;;;;;;;4.15;1.73;;;9.70;99.90;;;;;;5126284;27;20031;-78
2023/04/19 07:26:31;;;;;;;2.00;1.40;;;9.80;99.90;;;;;;5090347;27;20145;-78
2023/04/19 07:28:58;;;;;;;1.58;1.15;;;9.90;99.90;;;;;;5125721;27;20328;-77
2023/04/19 07:31:24;;;;;;;2.05;1.02;;;10.00;99.90;;;;;;5125171;27;20501;-76
2023/04/19 07:33:50;;;;;;;3.88;0.90;;;10.10;99.90;;;;;;5125048;27;20047;-76
2023/04/19 07:36:16;;;;;;;2.10;1.08;;;10.10;99.90;;;;;;5125993;27;20074;-76
2023/04/19 07:38:42;;;;;;;3.33;1.17;;;10.30;99.90;;;;;;5089041;27;20139;-77
2023/04/19 07:41:09;;;;;;;5.63;1.70;;;10.30;99.90;;;;;;5106922;27;20043;-76
2023/04/19 07:43:35;;;;;;;1.85;0.75;;;10.40;99.90;;;;;;5106636;27;20456;-76
2023/04/19 07:46:01;;;;;;;1.75;0.95;;;10.50;99.90;;;;;;5106688;27;20082;-76
2023/04/19 07:48:26;;;;;;;2.15;1.45;;;10.60;99.90;;;;;;5124831;27;20074;-76
2023/04/19 07:50:52;;;;;;;1.73;1.27;;;10.80;99.90;;;;;;5124647;27;20097;-77
2023/04/19 07:53:18;;;;;;;5.82;1.10;;;10.80;99.90;;;;;;5125100;27;20115;-76
2023/04/19 07:55:44;;;;;;;6.90;1.33;;;10.80;99.90;;;;;;5124225;27;20047;-76
2023/04/19 07:58:10;;;;;;;4.25;1.00;;;10.90;99.90;;;;;;5125420;27;20043;-76
2023/04/19 08:00:36;;;;;;;3.88;1.27;;;11.00;99.90;;;;;;5105992;27;20148;-75
2023/04/19 08:03:02;;;;;;;4.70;0.98;;;11.10;99.90;;;;;;5125086;27;20130;-76
2023/04/19 08:05:30;;;;;;;2.92;1.42;;;11.20;99.90;;;;;;5088711;27;20087;-78
2023/04/19 08:07:55;;;;;;;4.65;1.10;;;11.40;99.90;;;;;;5105486;28;20170;-78
2023/04/19 08:10:22;;;;;;;3.90;1.10;;;11.50;99.90;;;;;;5106753;27;20515;-78
2023/04/19 08:12:48;;;;;;;1.70;1.17;;;12.60;99.90;;;;;;5088604;28;20043;-78
2023/04/19 08:15:14;;;;;;;6.53;1.10;;;11.70;99.90;;;;;;5089717;27;20047;-78
2023/04/19 08:17:42;;;;;;;1.52;0.90;;;11.90;99.90;;;;;;5105660;27;20049;-78
2023/04/19 08:20:10;;;;;;;2.53;1.17;;;12.00;99.90;;;;;;5106077;28;20051;-78
2023/04/19 08:22:36;;;;;;;1.92;0.80;;;12.20;99.80;;;;;;5106114;27;20503;-79
2023/04/19 08:25:02;;;;;;;1.90;0.82;;;12.40;99.50;;;;;;5088810;27;20538;-79
2023/04/19 08:27:28;;;;;;;2.25;0.80;;;12.60;98.80;;;;;;5089373;28;20035;-79
2023/04/19 08:29:54;;;;;;;1.55;0.73;;;12.70;98.10;;;;;;5088658;28;20046;-79
2023/04/19 08:32:20;;;;;;;1.33;0.90;;;12.80;97.70;;;;;;5089944;28;20580;-79
2023/04/19 08:34:46;;;;;;;2.28;0.80;;;12.90;97.50;;;;;;5105053;28;20036;-79
2023/04/19 08:37:12;;;;;;;4.13;1.00;;;12.80;96.90;;;;;;5105703;28;20051;-80
2023/04/19 08:39:37;;;;;;;2.08;0.60;;;12.90;96.80;;;;;;5104833;28;20131;-79
2023/04/19 08:42:08;;;;;;;2.67;1.08;;;12.90;96.80;;;;;;5106040;28;20055;-79
2023/04/19 08:44:37;;;;;;;3.72;1.23;;;13.00;95.60;;;;;;5105678;28;20050;-79
2023/04/19 08:47:04;;;;;;;5.75;3.33;;;13.00;95.90;;;;;;5123788;28;20401;-80
2023/04/19 08:49:35;;;;;;;3.47;1.20;;;13.00;95.20;;;;;;5106176;28;20051;-79
2023/04/19 08:52:01;;;;;;;6.45;1.10;;;13.00;94.80;;;;;;5105316;28;20063;-78
2023/04/19 08:54:30;;;;;;;1.80;1.08;;;13.00;94.90;;;;;;5089145;28;20597;-79
2023/04/19 08:56:59;;;;;;;1.83;1.00;;;13.00;94.20;;;;;;5104926;28;20074;-80
2023/04/19 08:59:25;;;;;;;2.40;0.93;;;13.20;94.60;;;;;;5105293;28;20401;-79
2023/04/19 09:01:50;;;;;;;5.35;1.30;;;13.30;94.40;;;;;;5105523;28;20051;-79
2023/04/19 09:04:16;;;;;;;1.25;0.88;;;13.40;93.80;;;;;;5088257;28;20050;-80
2023/04/19 09:06:42;;;;;;;4.22;1.27;;;13.50;93.80;;;;;;5105847;28;20599;-79
2023/04/19 09:09:16;;;;;;;4.30;1.27;;;13.50;93.20;;;;;;5088153;28;20410;-79
2023/04/19 09:11:42;;;;;;;3.95;0.90;;;13.60;92.90;;;;;;5105208;28;20047;-78
2023/04/19 09:14:09;;;;;;;5.32;1.35;;;13.60;93.40;;;;;;5104551;28;20122;-78
2023/04/19 09:16:38;;;;;;;2.28;1.25;;;13.70;92.40;;;;;;5107652;27;20148;-78
2023/04/19 09:19:05;;;;;;;4.68;1.10;;;13.60;91.30;;;;;;5109338;27;20047;-79
2023/04/19 09:21:32;;;;;;;2.63;0.95;;;13.70;91.40;;;;;;5091793;27;20112;-78
2023/04/19 09:23:59;;;;;;;1.65;0.73;;;13.70;90.60;;;;;;5109470;27;20048;-81
2023/04/19 09:26:28;;;;;;;2.17;0.80;;;13.70;90.40;;;;;;5109236;27;20110;-78
2023/04/19 09:29:01;;;;;;;8.45;1.30;;;13.80;90.50;;;;;;5092461;27;20118;-78
2023/04/19 09:31:28;;;;;;;2.15;0.73;;;13.90;89.10;;;;;;5127029;27;20126;-78
2023/04/19 09:33:54;;;;;;;5.63;0.90;;;13.90;87.80;;;;;;5127290;27;20047;-78
2023/04/19 09:36:31;;;;;;;3.75;0.90;;;14.00;87.20;;;;;;5092929;27;20609;-78
2023/04/19 09:38:58;;;;;;;2.00;0.70;;;14.10;84.80;;;;;;5127010;27;20043;-78
2023/04/19 09:41:25;;;;;;;2.38;0.90;;;14.30;86.60;;;;;;5092080;27;20126;-78
2023/04/19 09:43:51;;;;;;;0.90;0.63;;;14.40;84.30;;;;;;5107994;27;20443;-78
2023/04/19 09:46:36;;;;;;;1.63;0.85;;;14.50;82.60;;;;;;5074958;27;20474;-78
2023/04/19 09:49:28;;;;;;;2.55;0.90;;;14.60;77.30;;;;;;5127871;27;20101;-79
2023/04/19 09:51:55;;;;;;;5.93;0.73;;;14.70;75.40;;;;;;5123096;27;20050;-78
2023/04/19 09:54:23;;;;;;;2.70;0.70;;;14.70;75.70;;;;;;5127210;27;20031;-79
2023/04/19 09:56:51;;;;;;;4.72;0.90;;;14.70;74.00;;;;;;5126683;27;20043;-79
2023/04/19 09:59:17;;;;;;;4.18;0.60;;;14.70;74.80;;;;;;5082869;28;20115;-79
2023/04/19 10:01:49;;;;;;;2.20;0.60;;;14.70;74.80;;;;;;5083253;28;20515;-79
2023/04/19 10:04:21;;;;;;;1.60;0.70;;;14.80;74.60;;;;;;5082701;28;20066;-78
2023/04/19 10:06:49;;;;;;;2.58;0.70;;;14.90;74.80;;;;;;5084155;28;20040;-78
2023/04/19 10:09:16;;;;;;;9.35;1.38;;;15.00;74.40;;;;;;5083428;28;20507;-79
2023/04/19 10:11:48;;;;;;;1.73;0.70;;;15.10;74.30;;;;;;5083665;28;20341;-79
2023/04/19 10:14:15;;;;;;;1.23;0.77;;;15.20;72.60;;;;;;5083206;28;20556;-79
2023/04/19 10:16:41;;;;;;;1.50;0.60;;;15.10;71.60;;;;;;5066725;28;20036;-79
2023/04/19 10:19:09;;;;;;;4.10;1.27;;;15.10;71.40;;;;;;5083672;28;20402;-79
2023/04/19 10:21:36;;;;;;;1.60;0.85;;;15.10;71.80;;;;;;5065876;28;20050;-80
2023/04/19 10:24:03;;;;;;;1.50;0.82;;;15.20;73.10;;;;;;5067283;28;20091;-79
2023/04/19 10:26:29;;;;;;;4.25;0.70;;;15.40;72.80;;;;;;5066315;28;20737;-80
2023/04/19 10:28:56;;;;;;;3.05;0.57;;;15.40;72.40;;;;;;5065642;28;20036;-80
2023/04/19 10:31:24;;;;;;;1.17;0.45;;;15.50;71.80;;;;;;5123842;27;20066;-80
2023/04/19 10:33:57;;;;;;;2.30;0.60;;;15.50;70.90;;;;;;5107389;27;20121;-79
2023/04/19 10:36:26;;;;;;;1.20;0.60;;;15.10;70.30;;;;;;5091324;27;20082;-79
2023/04/19 10:38:54;;;;;;;0.55;0.40;;;15.50;69.80;;;;;;5107968;27;20043;-79
2023/04/19 10:41:21;;;;;;;2.25;0.65;;;15.60;70.40;;;;;;5074409;27;20055;-79
2023/04/19 10:44:10;;;;;;;3.63;0.60;;;15.50;69.50;;;;;;5090252;27;20054;-79
2023/04/19 10:46:40;;;;;;;1.13;0.60;;;15.40;66.70;;;;;;5115085;27;20138;-79
2023/04/19 10:49:08;;;;;;;3.45;0.70;;;15.40;70.20;;;;;;5091782;27;20070;-80
2023/04/19 10:51:37;;;;;;;1.55;0.45;;;15.50;70.00;;;;;;5107431;27;20043;-81
2023/04/19 10:54:03;;;;;;;1.42;0.50;;;15.60;69.40;;;;;;5107785;27;20127;-77
2023/04/19 10:56:32;;;;;;;2.65;0.57;;;15.60;68.60;;;;;;5125418;27;20510;-78
2023/04/19 10:59:06;;;;;;;1.08;0.50;;;15.60;67.80;;;;;;5125870;27;20043;-81
2023/04/19 11:01:44;;;;;;;4.88;0.60;;;15.70;67.90;;;;;;5107257;27;20122;-77
2023/04/19 11:04:10;;;;;;;3.17;0.55;;;15.80;68.30;;;;;;5106520;27;20216;-79
2023/04/19 11:06:55;;;;;;;2.47;0.73;;;15.80;67.40;;;;;;5107574;27;20047;-78
2023/04/19 11:09:44;;;;;;;2.45;0.50;;;15.80;67.20;;;;;;5125595;27;20053;-78
2023/04/19 11:12:12;;;;;;;3.45;0.80;;;15.90;65.90;;;;;;5107481;27;20047;-77
2023/04/19 11:14:44;;;;;;;7.97;0.60;;;16.00;68.00;;;;;;5126002;27;20126;-77
2023/04/19 11:17:25;;;;;;;3.28;0.80;;;16.10;66.30;;;;;;5106987;27;20066;-77
2023/04/19 11:20:02;;;;;;;1.00;0.60;;;16.10;65.40;;;;;;5125741;27;20122;-77
2023/04/19 11:22:37;;;;;;;2.00;0.50;;;16.10;65.70;;;;;;5089458;27;20058;-77
2023/04/19 11:25:18;;;;;;;2.72;0.65;;;16.10;66.00;;;;;;5106743;27;20051;-77
2023/04/19 11:27:46;;;;;;;2.40;0.80;;;16.10;66.10;;;;;;5107529;27;20074;-77
2023/04/19 11:30:19;;;;;;;1.70;0.70;;;16.20;66.90;;;;;;5124931;27;20039;-77
2023/04/19 11:32:55;;;;;;;1.88;0.65;;;16.20;66.10;;;;;;5125567;27;20079;-77
2023/04/19 11:35:26;;;;;;;1.10;0.50;;;16.30;65.80;;;;;;5125046;27;20199;-77
2023/04/19 11:37:52;;;;;;;1.00;0.75;;;16.20;65.90;;;;;;5106913;27;20054;-77
2023/04/19 11:40:20;;;;;;;1.98;0.63;;;17.50;67.00;;;;;;5124837;27;20410;-77
2023/04/19 11:42:52;;;;;;;1.77;0.80;;;16.30;65.80;;;;;;5106139;27;20055;-78
2023/04/19 11:45:29;;;;;;;2.47;1.10;;;16.30;66.20;;;;;;5125574;27;20043;-78
2023/04/19 11:47:55;;;;;;;4.47;0.93;;;16.30;65.90;;;;;;5125317;27;20046;-77
2023/04/19 11:50:44;;;;;;;1.98;0.60;;;16.40;67.20;;;;;;5107017;27;20043;-80
2023/04/19 11:53:15;;;;;;;7.68;1.60;;;17.60;67.10;;;;;;5106656;27;20047;-77
2023/04/19 11:55:45;;;;;;;5.93;1.27;;;16.60;66.80;;;;;;5089704;27;20039;-78
2023/04/19 11:58:25;;;;;;;3.50;1.30;;;16.50;64.80;;;;;;5106973;27;20057;-79
2023/04/19 12:00:50;;;;;;;1.83;1.10;;;16.50;63.50;;;;;;5106348;27;20055;-79
2023/04/19 12:03:20;;;;;;;1.83;1.00;;;16.50;66.50;;;;;;5106326;27;20506;-77
2023/04/19 12:05:57;;;;;;;4.22;1.40;;;16.60;67.30;;;;;;5124818;27;20203;-78
2023/04/19 12:08:34;;;;;;;2.03;1.30;;;16.60;66.00;;;;;;5105843;27;20398;-77
2023/04/19 12:11:00;;;;;;;3.63;1.40;;;16.70;67.10;;;;;;5125460;27;20045;-78
2023/04/19 12:13:32;;;;;;;1.75;1.20;;;16.90;67.00;;;;;;5106062;27;20168;-78
2023/04/19 12:15:58;;;;;;;5.15;1.30;;;16.90;66.90;;;;;;5106542;27;20043;-78
2023/04/19 12:18:24;;;;;;;3.08;1.27;;;16.90;66.30;;;;;;5124074;27;20031;-78
2023/04/19 12:20:51;;;;;;;3.72;1.45;;;16.90;66.60;;;;;;5105648;28;20058;-80
2023/04/19 12:23:18;;;;;;;2.35;1.50;;;16.90;66.70;;;;;;5106282;27;20051;-77
2023/04/19 12:25:46;;;;;;;5.50;1.60;;;16.90;66.30;;;;;;5105865;28;20142;-78
2023/04/19 12:28:13;;;;;;;4.30;1.45;;;17.00;66.50;;;;;;5106852;28;20065;-78
2023/04/19 12:30:39;;;;;;;4.13;1.35;;;17.00;65.80;;;;;;5124741;28;20473;-77
2023/04/19 12:33:08;;;;;;;2.38;1.50;;;17.00;66.30;;;;;;5105922;28;20079;-77
2023/04/19 12:35:35;;;;;;;4.43;1.90;;;16.90;66.10;;;;;;5088675;28;20039;-78
2023/04/19 12:38:01;;;;;;;9.77;2.15;;;16.80;67.80;;;;;;5124450;28;20555;-78
2023/04/19 12:40:28;;;;;;;6.10;2.42;;;16.50;67.20;;;;;;5106019;28;20116;-79
2023/04/19 12:42:54;;;;;;;6.65;1.80;;;16.30;68.40;;;;;;5105950;28;20035;-78
2023/04/19 12:45:20;;;;;;;4.20;1.95;;;16.20;69.00;;;;;;5106411;28;20540;-78
2023/04/19 12:47:47;;;;;;;3.40;1.95;;;16.30;69.60;;;;;;5105986;28;20043;-78
2023/04/19 12:50:14;;;;;;;5.07;2.63;;;16.40;70.50;;;;;;5105725;27;20051;-84